CheckWX is a tool to help pilots better visualize weather data.  It is not intended as a substitute for an official pre-flight weather briefing.

12:12:19 UTC

KPRC TAF
Ernest A Love Field Airport
Prescott, Arizona, USA
KPRC 201120Z 2012/2112 20005KT P6SM SKC FM202100 24010G20KT P6SM SKC FM210100 20005KT P6SM SKC

Aug-20@
12:00 UTC

Aug-20 @ 12:00 UTC

Aug-20@
21:00 UTC

Aug-20 @ 21:00 UTC

KPRC 201120Z 2012/2112 20005KT P6SM SKC
Wind
  • 200° at 5 KTS
Cloud Levels
  • Clear skies

Aug-20@
21:00 UTC

Aug-20 @ 21:00 UTC

Aug-21@
01:00 UTC

Aug-21 @ 01:00 UTC

FM202100 24010G20KT P6SM SKC

From

From Standard forecast or significant change

Wind
  • 240° at 10 KTS
  • {Gusting to 20 KTS
Cloud Levels
  • Clear skies

Aug-21@
01:00 UTC

Aug-21 @ 01:00 UTC

Aug-21@
12:00 UTC

Aug-21 @ 12:00 UTC

FM210100 20005KT P6SM SKC

From

From Standard forecast or significant change

Wind
  • 200° at 5 KTS
Cloud Levels
  • Clear skies